Newtonville, New York
Current Conditions -  °F | °C
As of 7:51 AM on Tuesday 21 Oct 2014 (Local Time) from KALB Reporting Station
Light Rain Light Rain  
Wind Chill: 49°   Ceiling: 7000
Heat Index: 49°   Visibility: 6mi
Dew Point: 46°   Wind: 3mph
Humidity: 90%   Direction: 340°NNW
Pressure: 29.91"   Gusts: NA
Location:  42.72°N, 73.76°W
Report Text: KALB 211151Z 34003KT 6SM -RA BR FEW055 BKN070 OVC110 09/08 A2991 RMK AO2 SLP129 PCPN VRY LGT OCNL BINOVC P0001 60008 70008 T00940078 10111 20083 51004
Loading
Personal Weather Stations






























Interactive Weather Map
Tropical Storm Tracking
New forecast layout! Learn more

10-Day Weather Forecast

Advertisements
Track Severe Weather on mobile